Main Menu

Like Us on Facebook

Search

Login

Username:

Password:


Lost Password?

Register now!

Forecast for your location

Detailed conditions for your location

Current US satellite images

Current US radar image

Current US warnings and watches

Various US weather maps

The raw METAR code for this location is KSFO 230556Z 28016G22KT 10SM SCT200 12/07 A3014 RMK AO2 PK WND 28028/0509 SLP206 T01220067 10156 20122 51012

Decoded METAR for this location (may not be available)